Time;durP1;ratioP1;P1;durP2;ratioP2;P2;SDS_P1;SDS_P2;PMS_P1;PMS_P2;Temp;Humidity;BMP_temperature;BMP_pressure;BME280_temperature;BME280_humidity;BME280_pressure;Samples;Min_cycle;Max_cycle;Signal;HPM_P1;HPM_P2
2022/09/23 00:01:04;;;;;;;8.27;3.10;;;;;;;15.14;47.17;98471.19;4456825;32;20090;-78
2022/09/23 00:03:31;;;;;;;8.00;2.97;;;;;;;14.39;48.62;98464.75;4456985;32;20161;-79
2022/09/23 00:06:04;;;;;;;8.32;3.03;;;;;;;14.50;48.89;98474.63;4456354;32;20154;-78
2022/09/23 00:08:31;;;;;;;7.37;3.00;;;;;;;14.92;47.93;98475.88;4456888;32;20097;-78
2022/09/23 00:11:07;;;;;;;7.45;2.83;;;;;;;14.53;48.83;98466.66;4456720;32;20452;-78
2022/09/23 00:13:35;;;;;;;8.18;3.15;;;;;;;14.54;48.94;98473.53;4456579;32;20103;-78
2022/09/23 00:16:06;;;;;;;7.80;2.80;;;;;;;14.09;50.41;98472.34;4456476;32;20097;-79
2022/09/23 00:18:33;;;;;;;8.10;2.90;;;;;;;14.41;49.53;98469.87;4456516;32;20115;-78
2022/09/23 00:21:09;;;;;;;7.45;2.78;;;;;;;14.57;48.90;98467.31;4456622;32;20081;-78
2022/09/23 00:23:37;;;;;;;7.32;2.97;;;;;;;14.54;48.58;98463.13;4456773;32;20431;-78
2022/09/23 00:26:05;;;;;;;8.40;3.35;;;;;;;13.57;51.07;98461.09;4442285;32;20360;-78
2022/09/23 00:28:34;;;;;;;7.57;3.05;;;;;;;13.90;50.54;98466.38;4456619;32;20089;-78
2022/09/23 00:31:02;;;;;;;6.70;2.92;;;;;;;14.04;50.38;98458.78;4456590;32;20111;-78
2022/09/23 00:33:30;;;;;;;7.25;2.92;;;;;;;13.82;51.49;98452.94;4442132;32;20153;-78
2022/09/23 00:36:04;;;;;;;9.55;3.35;;;;;;;13.85;51.72;98451.06;4456468;32;20093;-78
2022/09/23 00:38:32;;;;;;;8.82;3.05;;;;;;;13.54;52.50;98449.13;4456719;32;20127;-78
2022/09/23 00:40:59;;;;;;;8.65;3.28;;;;;;;13.53;52.75;98446.59;4456209;32;20096;-78
2022/09/23 00:43:45;;;;;;;8.98;3.15;;;;;;;13.31;53.27;98444.19;4456570;32;20121;-78
2022/09/23 00:46:17;;;;;;;10.80;3.45;;;;;;;12.95;54.24;98436.34;4456505;32;20104;-79
2022/09/23 00:48:44;;;;;;;8.57;3.20;;;;;;;12.91;54.27;98432.22;4441910;32;20127;-79
2022/09/23 00:51:16;;;;;;;8.70;3.95;;;;;;;13.17;53.68;98436.19;4456489;32;20111;-79
2022/09/23 00:53:46;;;;;;;7.68;3.10;;;;;;;13.10;53.73;98427.03;4442375;32;20081;-79
2022/09/23 00:56:13;;;;;;;10.10;3.60;;;;;;;13.56;52.81;98423.94;4442406;32;20162;-79
2022/09/23 00:58:42;;;;;;;7.30;3.17;;;;;;;13.36;53.10;98426.66;4456504;32;20587;-79
2022/09/23 01:01:10;;;;;;;8.15;3.30;;;;;;;13.35;53.01;98422.41;4442158;32;20093;-79
2022/09/23 01:03:37;;;;;;;9.93;3.45;;;;;;;14.14;50.83;98423.66;4456448;32;20085;-79
2022/09/23 01:06:04;;;;;;;11.70;3.67;;;;;;;13.82;51.38;98425.28;4456287;32;20101;-79
2022/09/23 01:08:31;;;;;;;10.77;2.92;;;;;;;13.45;51.92;98415.87;4456167;32;20097;-79
2022/09/23 01:11:33;;;;;;;8.75;3.25;;;;;;;14.21;50.02;98424.16;4442448;32;20740;-79
2022/09/23 01:14:30;;;;;;;8.13;3.10;;;;;;;14.60;48.56;98425.63;4453551;32;20099;-79
2022/09/23 01:17:10;;;;;;;10.05;3.47;;;;;;;14.09;49.88;98422.19;4442327;32;20162;-78
2022/09/23 01:20:05;;;;;;;8.35;3.42;;;;;;;14.38;48.92;98424.13;4442604;32;20113;-79
2022/09/23 01:22:57;;;;;;;10.55;3.37;;;;;;;13.62;50.83;98416.81;4455936;32;20097;-78
2022/09/23 01:25:53;;;;;;;8.52;3.30;;;;;;;14.09;50.10;98419.59;4456171;32;20150;-78
2022/09/23 01:28:23;;;;;;;8.43;3.47;;;;;;;13.61;51.54;98418.56;4438912;32;20170;-78
2022/09/23 01:30:53;;;;;;;7.62;3.17;;;;;;;12.42;54.90;98424.06;4455838;32;20529;-78
2022/09/23 01:33:50;;;;;;;9.38;3.70;;;;;;;13.04;53.03;98426.41;4429492;32;20165;-78
2022/09/23 01:36:41;;;;;;;9.57;3.40;;;;;;;13.68;51.30;98429.44;4445674;32;20165;-78
2022/09/23 01:39:11;;;;;;;8.00;3.33;;;;;;;13.49;51.51;98424.31;4442249;32;20101;-78
2022/09/23 01:41:50;;;;;;;9.35;3.62;;;;;;;13.20;52.59;98425.72;4456130;32;20097;-79
2022/09/23 01:44:19;;;;;;;8.65;3.20;;;;;;;13.36;51.98;98431.84;4455842;32;20093;-78
2022/09/23 01:46:56;;;;;;;9.45;3.83;;;;;;;12.97;52.73;98426.75;4442209;32;20077;-79
2022/09/23 01:49:34;;;;;;;9.80;3.85;;;;;;;13.25;52.42;98431.53;4442348;32;20584;-78
2022/09/23 01:52:25;;;;;;;8.05;3.40;;;;;;;13.48;52.75;98428.66;4441981;32;20100;-79
2022/09/23 01:54:58;;;;;;;9.32;3.50;;;;;;;13.81;51.81;98433.09;4442093;32;20097;-78
2022/09/23 01:57:32;;;;;;;9.82;3.15;;;;;;;13.60;52.55;98427.22;4441924;32;20111;-78
2022/09/23 02:00:11;;;;;;;8.70;3.65;;;;;;;14.03;50.47;98419.91;4441048;32;20124;-78
2022/09/23 02:02:52;;;;;;;7.25;3.50;;;;;;;13.22;52.50;98429.94;4429453;32;20113;-78
2022/09/23 02:05:31;;;;;;;8.00;3.28;;;;;;;13.65;51.78;98429.59;4455591;32;20503;-78
2022/09/23 02:08:02;;;;;;;9.65;3.67;;;;;;;13.70;51.53;98425.88;4456021;32;20142;-78
2022/09/23 02:10:36;;;;;;;10.65;3.53;;;;;;;13.88;51.17;98426.72;4455998;32;20096;-79
2022/09/23 02:13:08;;;;;;;10.18;3.55;;;;;;;14.14;50.36;98415.00;4429042;32;20123;-78
2022/09/23 02:15:40;;;;;;;9.68;3.42;;;;;;;13.89;51.05;98415.41;4455782;32;20104;-78
2022/09/23 02:18:12;;;;;;;10.73;4.07;;;;;;;13.15;53.20;98417.28;4429260;32;20077;-79
2022/09/23 02:20:39;;;;;;;11.12;4.47;;;;;;;12.89;54.27;98411.59;4441926;32;20108;-78
2022/09/23 02:23:11;;;;;;;9.27;3.50;;;;;;;13.30;54.01;98411.44;4455850;32;20141;-79
2022/09/23 02:25:52;;;;;;;8.35;3.67;;;;;;;13.56;52.89;98411.00;4455409;32;20089;-79
2022/09/23 02:28:57;;;;;;;9.68;3.70;;;;;;;12.73;55.93;98414.03;4455819;32;20081;-79
2022/09/23 02:31:41;;;;;;;11.12;3.67;;;;;;;12.68;57.15;98412.56;4431778;32;20146;-78
2022/09/23 02:34:23;;;;;;;8.57;3.25;;;;;;;13.36;54.97;98405.94;4455179;32;20139;-78
2022/09/23 02:37:21;;;;;;;8.20;3.70;;;;;;;13.71;53.64;98414.56;4455578;32;20081;-78
2022/09/23 02:40:25;;;;;;;9.60;3.47;;;;;;;13.86;53.21;98410.41;4455344;32;20102;-78
2022/09/23 02:42:52;;;;;;;8.90;3.40;;;;;;;14.38;51.35;98408.56;4429532;32;20385;-79
2022/09/23 02:45:18;;;;;;;;;;;;;;;14.23;50.50;98405.91;4455795;32;20085;-79
2022/09/23 02:47:48;;;;;;;9.15;3.58;;;;;;;13.59;51.81;98408.25;4441382;32;19968;-78
2022/09/23 02:50:16;;;;;;;8.98;3.62;;;;;;;13.45;51.82;98402.91;4441520;32;20081;-79
2022/09/23 02:52:45;;;;;;;8.63;3.50;;;;;;;13.34;51.94;98404.34;4455314;32;20101;-79
2022/09/23 02:55:15;;;;;;;7.85;3.35;;;;;;;13.76;50.99;98406.59;4454864;32;20124;-79
2022/09/23 02:57:43;;;;;;;7.62;3.30;;;;;;;14.13;49.70;98401.19;4441375;32;20080;-79
2022/09/23 03:00:11;;;;;;;8.85;3.58;;;;;;;13.67;50.85;98407.03;4441109;32;20537;-79
2022/09/23 03:03:03;;;;;;;8.98;3.60;;;;;;;13.34;51.74;98402.59;4455125;32;20117;-79
2022/09/23 03:05:34;;;;;;;8.60;3.33;;;;;;;13.39;51.92;98410.97;4441361;32;20155;-79
2022/09/23 03:08:31;;;;;;;8.73;3.60;;;;;;;13.92;50.73;98404.03;4441062;32;20138;-79
2022/09/23 03:11:09;;;;;;;8.10;3.30;;;;;;;14.21;49.46;98407.75;4441906;32;20080;-79
2022/09/23 03:14:18;;;;;;;8.90;3.47;;;;;;;13.70;50.62;98402.53;4443476;32;20109;-79
2022/09/23 03:16:59;;;;;;;8.23;3.55;;;;;;;13.13;52.99;98403.56;4457058;32;20097;-79
2022/09/23 03:19:59;;;;;;;11.05;4.28;;;;;;;12.49;55.72;98398.78;4457246;32;20089;-79
2022/09/23 03:22:32;;;;;;;8.13;3.17;;;;;;;11.50;60.39;98398.69;4449478;32;20081;-78
2022/09/23 03:25:02;;;;;;;8.18;3.67;;;;;;;12.61;56.95;98399.06;4456983;32;20379;-79
2022/09/23 03:27:31;;;;;;;10.10;3.67;;;;;;;12.86;56.32;98403.09;4457144;32;20119;-79
2022/09/23 03:29:58;;;;;;;9.85;3.83;;;;;;;13.43;54.34;98399.56;4442967;32;20085;-79
2022/09/23 03:32:26;;;;;;;9.20;3.67;;;;;;;14.35;50.62;98402.66;4456761;32;20470;-79
2022/09/23 03:34:56;;;;;;;9.27;3.60;;;;;;;14.23;50.21;98395.53;4456943;32;20444;-79
2022/09/23 03:37:32;;;;;;;8.60;3.65;;;;;;;14.10;50.26;98395.34;4442994;32;20452;-78
2022/09/23 03:40:15;;;;;;;8.13;3.40;;;;;;;13.79;50.67;98390.84;4443192;32;20089;-79
2022/09/23 03:42:42;;;;;;;8.90;3.70;;;;;;;13.88;50.89;98390.41;4442867;32;20458;-78
2022/09/23 03:45:12;;;;;;;8.25;3.40;;;;;;;13.16;52.67;98393.06;4449217;32;250586;-79
2022/09/23 03:47:39;;;;;;;9.40;3.60;;;;;;;13.22;52.63;98383.28;4443059;32;20105;-79
2022/09/23 03:50:06;;;;;;;10.43;3.60;;;;;;;13.28;52.71;98380.38;4456498;32;20090;-79
2022/09/23 03:52:33;;;;;;;8.30;3.55;;;;;;;13.37;52.58;98386.03;4456859;32;20424;-79
2022/09/23 03:55:00;;;;;;;8.98;3.87;;;;;;;12.94;53.64;98382.88;4456698;32;20162;-79
2022/09/23 03:57:27;;;;;;;8.85;3.25;;;;;;;13.53;52.29;98393.00;4456565;32;20103;-79
2022/09/23 03:59:54;;;;;;;7.65;3.33;;;;;;;13.87;50.42;98384.38;4456910;32;20115;-79
2022/09/23 04:02:21;;;;;;;9.55;3.30;;;;;;;14.02;50.08;98377.56;4456806;32;20081;-79
2022/09/23 04:04:48;;;;;;;8.32;3.45;;;;;;;14.38;48.69;98387.81;4456456;32;20109;-79
2022/09/23 04:07:15;;;;;;;9.43;3.45;;;;;;;13.88;49.77;98390.41;4456857;32;20146;-79
2022/09/23 04:09:42;;;;;;;8.82;3.42;;;;;;;13.37;51.22;98384.28;4456785;32;20376;-79
2022/09/23 04:12:14;;;;;;;9.50;3.40;;;;;;;13.74;50.60;98383.31;4456428;32;20514;-79
2022/09/23 04:14:41;;;;;;;9.85;3.58;;;;;;;13.35;51.91;98383.53;4456639;32;20092;-79
2022/09/23 04:17:08;;;;;;;9.90;3.37;;;;;;;13.60;51.62;98381.41;4456574;32;20108;-78
2022/09/23 04:19:35;;;;;;;10.30;3.50;;;;;;;13.53;52.31;98386.97;4456750;32;20807;-79
2022/09/23 04:22:03;;;;;;;8.70;3.47;;;;;;;13.56;52.42;98387.66;4456120;32;20084;-79
2022/09/23 04:24:30;;;;;;;7.65;3.10;;;;;;;13.66;52.17;98389.81;4442372;32;20100;-79
2022/09/23 04:26:57;;;;;;;7.68;2.92;;;;;;;13.79;51.02;98390.84;4456806;32;20093;-79
2022/09/23 04:29:24;;;;;;;8.57;3.62;;;;;;;13.16;52.50;98396.50;4457501;32;20100;-79
2022/09/23 04:31:52;;;;;;;6.47;2.75;;;;;;;13.13;52.89;98386.28;4456053;32;20146;-79
2022/09/23 04:34:19;;;;;;;9.20;3.35;;;;;;;13.33;52.13;98398.31;4456360;32;20109;-79
2022/09/23 04:36:47;;;;;;;8.60;3.08;;;;;;;13.15;52.71;98384.44;4456595;32;20093;-79
2022/09/23 04:39:15;;;;;;;7.43;2.95;;;;;;;14.44;49.57;98394.41;4456083;32;20135;-79
2022/09/23 04:41:43;;;;;;;9.10;3.33;;;;;;;13.53;52.18;98389.56;4456540;32;20077;-79
2022/09/23 04:44:11;;;;;;;16.60;4.28;;;;;;;13.56;52.54;98392.84;4456524;32;20136;-78
2022/09/23 04:46:39;;;;;;;7.60;2.78;;;;;;;13.89;53.22;98384.28;4456176;32;20112;-79
2022/09/23 04:49:06;;;;;;;8.38;3.50;;;;;;;12.87;56.13;98382.34;4442607;32;20161;-78
2022/09/23 04:51:34;;;;;;;7.95;3.22;;;;;;;13.65;54.11;98383.78;4456456;32;20142;-79
2022/09/23 04:54:01;;;;;;;7.47;3.10;;;;;;;14.09;51.61;98389.31;4456010;32;20085;-79
2022/09/23 04:56:31;;;;;;;8.20;3.25;;;;;;;13.46;52.75;98388.19;4456517;32;20101;-79
2022/09/23 04:59:00;;;;;;;9.32;3.30;;;;;;;14.23;50.64;98390.34;4456478;32;20100;-79
2022/09/23 05:01:33;;;;;;;10.57;3.60;;;;;;;13.92;51.36;98396.25;4456014;32;20089;-79
2022/09/23 05:04:04;;;;;;;8.73;3.30;;;;;;;13.43;52.72;98399.56;4456319;32;20553;-79
2022/09/23 05:06:34;;;;;;;8.23;3.50;;;;;;;14.16;50.66;98398.47;4456219;32;20112;-79
2022/09/23 05:09:03;;;;;;;8.68;3.33;;;;;;;13.65;51.68;98399.34;4456443;32;20185;-79
2022/09/23 05:11:30;;;;;;;10.63;3.20;;;;;;;13.20;53.36;98403.25;4442442;32;20103;-79
2022/09/23 05:13:58;;;;;;;8.40;3.25;;;;;;;12.97;57.62;98400.84;4455930;32;20166;-79
2022/09/23 05:16:25;;;;;;;8.07;2.80;;;;;;;14.92;51.25;98403.97;4456403;32;20097;-79
2022/09/23 05:18:53;;;;;;;7.80;2.80;;;;;;;14.45;52.06;98401.31;4456553;32;20089;-79
2022/09/23 05:21:22;;;;;;;6.90;3.00;;;;;;;14.66;51.42;98407.13;4455954;32;20158;-80
2022/09/23 05:23:53;;;;;;;8.07;3.05;;;;;;;15.71;49.31;98403.88;4456309;32;20170;-80
2022/09/23 05:26:24;;;;;;;7.62;3.37;;;;;;;16.92;46.60;98402.66;4456424;32;20084;-80
2022/09/23 05:28:52;;;;;;;8.88;2.80;;;;;;;17.61;45.07;98406.88;4456033;32;20721;-80
2022/09/23 05:31:21;;;;;;;5.80;2.60;;;;;;;18.19;43.12;98413.47;4456191;32;20073;-80
2022/09/23 05:33:50;;;;;;;5.05;2.35;;;;;;;19.06;40.85;98409.19;4441887;32;20109;-80
2022/09/23 05:36:21;;;;;;;6.50;2.75;;;;;;;19.58;39.87;98413.31;4442064;32;20105;-80
2022/09/23 05:38:49;;;;;;;6.03;2.50;;;;;;;20.35;38.45;98417.06;4456558;32;20089;-80
2022/09/23 05:41:18;;;;;;;7.65;3.15;;;;;;;20.34;37.89;98423.25;4456518;32;20134;-80
2022/09/23 05:43:46;;;;;;;8.73;2.83;;;;;;;20.79;37.20;98418.03;4457922;32;20080;-80
2022/09/23 05:46:15;;;;;;;10.18;2.53;;;;;;;21.31;36.19;98422.63;4443172;32;20122;-81
2022/09/23 05:48:46;;;;;;;7.15;2.70;;;;;;;21.51;35.96;98428.91;4450538;32;20150;-81
2022/09/23 05:51:16;;;;;;;6.53;2.70;;;;;;;21.37;36.08;98430.03;4474526;32;20149;-81
2022/09/23 05:53:46;;;;;;;6.45;2.62;;;;;;;21.78;35.09;98427.59;4460626;32;20104;-81
2022/09/23 05:56:18;;;;;;;5.62;2.40;;;;;;;19.28;39.73;98422.41;4478163;32;20061;-80
2022/09/23 05:58:47;;;;;;;6.45;2.80;;;;;;;21.00;37.13;98420.75;4475463;32;20109;-81
2022/09/23 06:01:17;;;;;;;5.62;2.35;;;;;;;19.74;39.84;98426.91;4477568;32;20079;-81
2022/09/23 06:03:48;;;;;;;7.85;2.55;;;;;;;22.78;35.03;98424.31;4476514;32;20061;-80
2022/09/23 06:06:16;;;;;;;5.20;2.37;;;;;;;23.23;33.71;98426.56;4483494;32;20065;-81
2022/09/23 06:08:44;;;;;;;9.00;3.33;;;;;;;24.26;31.82;98427.81;4485439;32;20101;-80
2022/09/23 06:11:12;;;;;;;6.75;2.58;;;;;;;24.00;32.14;98430.19;4484922;32;20128;-81
2022/09/23 06:13:40;;;;;;;6.57;2.70;;;;;;;23.48;33.18;98430.44;4484821;32;20110;-80
2022/09/23 06:16:12;;;;;;;4.78;2.12;;;;;;;23.11;34.03;98425.00;4485561;32;20080;-80
2022/09/23 06:18:41;;;;;;;3.55;1.92;;;;;;;23.72;33.72;98431.91;4485259;32;20102;-80
2022/09/23 06:21:13;;;;;;;7.45;2.08;;;;;;;23.79;32.89;98425.09;4477836;32;20434;-81
2022/09/23 06:23:40;;;;;;;5.32;2.10;;;;;;;23.73;33.24;98433.56;4470645;32;20092;-81
2022/09/23 06:26:09;;;;;;;5.80;1.90;;;;;;;24.37;32.18;98430.31;4474138;32;20062;-81
2022/09/23 06:28:38;;;;;;;5.78;2.30;;;;;;;24.57;31.76;98425.81;4473165;32;20089;-81
2022/09/23 06:31:08;;;;;;;4.05;1.98;;;;;;;23.78;32.84;98429.53;4473489;32;20142;-80
2022/09/23 06:33:40;;;;;;;9.50;2.20;;;;;;;22.91;34.03;98426.75;4450606;32;20119;-81
2022/09/23 06:36:07;;;;;;;3.87;1.98;;;;;;;22.84;34.33;98427.41;4479486;32;20069;-80
2022/09/23 06:38:37;;;;;;;5.30;2.03;;;;;;;22.08;36.17;98427.69;4476301;32;20052;-80
2022/09/23 06:41:04;;;;;;;6.15;2.15;;;;;;;21.86;36.13;98420.75;4467845;32;20053;-81
2022/09/23 06:43:31;;;;;;;4.43;1.90;;;;;;;20.65;38.81;98434.88;4480339;32;20069;-80
2022/09/23 06:46:02;;;;;;;5.78;2.25;;;;;;;20.76;39.02;98431.41;4479159;32;20057;-81
2022/09/23 06:48:33;;;;;;;5.93;2.15;;;;;;;21.84;36.78;98438.44;4479498;32;20076;-80
2022/09/23 06:51:02;;;;;;;4.80;1.80;;;;;;;21.87;37.26;98442.59;4479379;32;20084;-80
2022/09/23 06:53:31;;;;;;;4.53;2.10;;;;;;;22.46;36.10;98447.31;4478616;32;20203;-80
2022/09/23 06:56:04;;;;;;;4.70;2.00;;;;;;;23.07;34.38;98448.13;4464062;32;20104;-80
2022/09/23 06:58:32;;;;;;;3.70;1.98;;;;;;;23.31;34.20;98441.69;4475813;32;20080;-80
2022/09/23 07:01:10;;;;;;;5.37;1.95;;;;;;;23.20;34.12;98442.62;4474077;32;20072;-80
2022/09/23 07:03:38;;;;;;;5.47;2.62;;;;;;;23.32;34.04;98440.72;4456039;32;20108;-80
2022/09/23 07:06:06;;;;;;;5.22;1.70;;;;;;;23.55;33.85;98442.12;4469845;32;20104;-79
2022/09/23 07:08:34;;;;;;;2.95;1.60;;;;;;;23.07;34.13;98434.12;4469998;32;20107;-79
2022/09/23 07:11:04;;;;;;;4.72;2.00;;;;;;;22.31;35.69;98432.81;4470282;32;20099;-80
2022/09/23 07:13:35;;;;;;;5.95;1.90;;;;;;;22.69;35.10;98438.28;4469235;32;20084;-81
2022/09/23 07:16:03;;;;;;;6.20;1.77;;;;;;;22.22;35.34;98432.66;4470224;32;20372;-81
2022/09/23 07:18:32;;;;;;;3.90;1.80;;;;;;;21.15;37.01;98439.69;4469649;32;20081;-81
2022/09/23 07:21:13;;;;;;;4.35;1.67;;;;;;;21.76;36.39;98447.91;4469635;32;20517;-80
2022/09/23 07:23:45;;;;;;;2.42;1.40;;;;;;;23.04;33.45;98448.38;4469320;32;20089;-81
2022/09/23 07:26:13;;;;;;;2.92;1.40;;;;;;;23.42;33.64;98443.34;4469907;32;20422;-81
2022/09/23 07:28:40;;;;;;;4.00;1.65;;;;;;;21.61;36.24;98435.06;4469234;32;20089;-80
2022/09/23 07:31:17;;;;;;;4.70;1.98;;;;;;;21.37;36.24;98448.41;4469817;32;20077;-81
2022/09/23 07:34:01;;;;;;;2.90;1.45;;;;;;;21.19;37.05;98435.88;4468921;32;20097;-81
2022/09/23 07:36:31;;;;;;;3.92;1.60;;;;;;;19.86;39.05;98443.50;4469790;32;20220;-81
2022/09/23 07:39:02;;;;;;;2.95;1.55;;;;;;;18.87;41.05;98442.81;4456149;32;20142;-81
2022/09/23 07:41:33;;;;;;;3.83;1.58;;;;;;;19.85;39.84;98439.22;4469135;32;20081;-81
2022/09/23 07:44:01;;;;;;;3.83;1.70;;;;;;;20.36;38.54;98447.56;4469370;32;20108;-81
2022/09/23 07:46:30;;;;;;;4.53;1.60;;;;;;;20.01;38.93;98447.59;4469620;32;20089;-81
2022/09/23 07:48:57;;;;;;;3.20;1.60;;;;;;;20.40;39.14;98445.53;4469026;32;20462;-81
2022/09/23 07:51:28;;;;;;;5.35;1.58;;;;;;;20.55;38.92;98448.81;4455785;32;20119;-81
2022/09/23 07:54:01;;;;;;;5.20;1.62;;;;;;;20.56;38.05;98447.84;4455936;32;20422;-81
2022/09/23 07:56:29;;;;;;;4.22;1.70;;;;;;;19.70;39.74;98446.41;4468749;32;20114;-81
2022/09/23 07:58:58;;;;;;;4.22;1.60;;;;;;;19.30;39.98;98446.66;4470870;32;20085;-81
2022/09/23 08:01:28;;;;;;;5.55;1.60;;;;;;;19.57;39.93;98456.13;4471723;32;20143;-81
2022/09/23 08:04:00;;;;;;;3.72;1.60;;;;;;;20.71;37.16;98449.28;4471192;32;20085;-81
2022/09/23 08:06:29;;;;;;;4.55;1.52;;;;;;;21.58;36.08;98456.31;4471727;32;20096;-81
2022/09/23 08:08:59;;;;;;;3.22;1.60;;;;;;;20.96;36.64;98458.69;4471341;32;20099;-81
2022/09/23 08:11:27;;;;;;;2.78;1.50;;;;;;;19.78;39.26;98459.78;4471497;32;20160;-81
2022/09/23 08:13:54;;;;;;;6.18;1.77;;;;;;;19.42;39.51;98451.97;4471471;32;20112;-81
2022/09/23 08:16:21;;;;;;;3.05;1.40;;;;;;;19.44;40.25;98450.06;4471839;32;20096;-82
2022/09/23 08:18:49;;;;;;;3.42;1.50;;;;;;;18.96;39.96;98450.03;4471577;32;20116;-81
2022/09/23 08:21:20;;;;;;;3.78;1.60;;;;;;;19.40;39.36;98452.06;4471637;32;20103;-81
2022/09/23 08:23:47;;;;;;;3.78;1.70;;;;;;;19.95;38.43;98455.91;4470491;32;20537;-81
2022/09/23 08:26:14;;;;;;;3.03;1.58;;;;;;;21.68;36.24;98451.13;4471644;32;20232;-81
2022/09/23 08:28:48;;;;;;;3.12;1.80;;;;;;;23.00;33.39;98451.44;4471470;32;20134;-81
2022/09/23 08:31:15;;;;;;;3.30;1.33;;;;;;;23.16;32.75;98446.47;4471288;32;20457;-81
2022/09/23 08:33:42;;;;;;;3.53;1.50;;;;;;;22.44;33.33;98449.22;4470836;32;20115;-81
2022/09/23 08:36:09;;;;;;;4.22;1.60;;;;;;;23.36;32.29;98449.97;4470926;32;20092;-81
2022/09/23 08:38:36;;;;;;;2.33;1.23;;;;;;;23.22;31.26;98447.75;4470878;32;20081;-81
2022/09/23 08:41:05;;;;;;;2.42;1.40;;;;;;;22.44;32.17;98446.59;4471592;32;20107;-81
2022/09/23 08:43:33;;;;;;;2.95;1.50;;;;;;;21.62;34.32;98436.72;4470940;32;20092;-81
2022/09/23 08:46:03;;;;;;;3.83;1.70;;;;;;;21.94;34.40;98443.75;4457162;32;20104;-81
2022/09/23 08:48:34;;;;;;;2.80;1.45;;;;;;;21.66;33.59;98439.94;4457322;32;20729;-80
2022/09/23 08:51:04;;;;;;;5.95;1.65;;;;;;;22.31;33.37;98443.31;4457222;32;20123;-81
2022/09/23 08:53:34;;;;;;;4.40;1.70;;;;;;;20.85;35.63;98446.44;4456544;32;20394;-81
2022/09/23 08:56:15;;;;;;;3.28;1.50;;;;;;;22.08;33.61;98440.00;4471294;32;20092;-81
2022/09/23 08:58:45;;;;;;;2.22;1.40;;;;;;;21.81;33.45;98445.75;4456379;32;20093;-80
2022/09/23 09:01:18;;;;;;;2.55;1.40;;;;;;;23.12;31.87;98447.72;4471458;32;20134;-80
2022/09/23 09:03:52;;;;;;;3.17;1.62;;;;;;;24.00;30.07;98440.75;4470861;32;20092;-80
2022/09/23 09:06:32;;;;;;;4.65;1.98;;;;;;;24.56;29.65;98437.31;4457110;32;20130;-80
2022/09/23 09:09:31;;;;;;;3.87;1.60;;;;;;;24.48;29.02;98444.16;4470664;32;20089;-80
2022/09/23 09:12:23;;;;;;;3.65;1.58;;;;;;;21.40;34.66;98422.84;4470266;32;20655;-80
2022/09/23 09:15:00;;;;;;;2.60;1.48;;;;;;;21.71;33.31;98431.69;4471082;32;20146;-81
2022/09/23 09:18:00;;;;;;;4.32;1.60;;;;;;;21.15;33.69;98434.44;4471328;32;20372;-80
2022/09/23 09:20:39;;;;;;;2.53;1.40;;;;;;;22.31;31.82;98435.44;4470948;32;20133;-81
2022/09/23 09:23:20;;;;;;;4.60;1.50;;;;;;;23.04;30.95;98431.78;4456471;32;20076;-81
2022/09/23 09:25:51;;;;;;;2.90;1.42;;;;;;;24.40;28.75;98433.50;4471267;32;20131;-81
2022/09/23 09:28:29;;;;;;;2.42;1.40;;;;;;;24.47;28.83;98426.69;4471393;32;20435;-81
2022/09/23 09:31:01;;;;;;;2.28;1.40;;;;;;;24.27;29.27;98432.94;4471147;32;20080;-81
2022/09/23 09:33:43;;;;;;;3.42;1.70;;;;;;;21.87;31.78;98430.28;4453042;32;20100;-82
2022/09/23 09:36:13;;;;;;;2.60;1.60;;;;;;;22.44;30.94;98428.19;4454402;32;20105;-81
2022/09/23 09:38:40;;;;;;;3.10;1.58;;;;;;;22.72;30.82;98434.53;4455537;32;20088;-81
2022/09/23 09:41:14;;;;;;;3.42;1.73;;;;;;;21.11;33.01;98428.63;4454910;32;20142;-80
2022/09/23 09:43:44;;;;;;;3.17;1.55;;;;;;;20.61;33.96;98422.09;4454857;32;20069;-81
2022/09/23 09:46:33;;;;;;;4.87;1.60;;;;;;;20.25;34.25;98421.34;4455370;32;20365;-81
2022/09/23 09:49:50;;;;;;;2.17;1.40;;;;;;;20.61;33.56;98422.94;4455718;32;20155;-83
2022/09/23 09:52:27;;;;;;;3.30;1.52;;;;;;;21.84;31.34;98427.09;4454726;32;20150;-82
2022/09/23 09:54:58;;;;;;;5.18;1.50;;;;;;;24.04;29.00;98429.81;4455013;32;20157;-82
2022/09/23 09:57:36;;;;;;;2.78;1.52;;;;;;;23.41;29.89;98420.63;4453634;32;20112;-81
2022/09/23 10:00:29;;;;;;;2.97;1.23;;;;;;;23.50;28.65;98428.53;4455411;32;20119;-81
2022/09/23 10:03:12;;;;;;;2.33;1.50;;;;;;;24.02;28.43;98420.34;4436062;32;20169;-81
2022/09/23 10:05:47;;;;;;;2.67;1.40;;;;;;;21.66;30.95;98416.28;4455327;32;20154;-81
2022/09/23 10:08:47;;;;;;;4.93;1.87;;;;;;;20.28;33.29;98423.72;4455054;32;20139;-81
2022/09/23 10:11:17;;;;;;;3.10;1.50;;;;;;;19.91;34.08;98420.44;4429473;32;20101;-82
2022/09/23 10:14:01;;;;;;;2.33;1.37;;;;;;;20.64;33.90;98430.56;4454451;32;20103;-81
2022/09/23 10:16:30;;;;;;;3.17;1.65;;;;;;;19.49;33.66;98414.78;4455075;32;20115;-81
2022/09/23 10:19:02;;;;;;;2.85;1.60;;;;;;;21.28;30.97;98414.19;4454090;32;20116;-81
2022/09/23 10:21:36;;;;;;;2.37;1.33;;;;;;;21.38;31.48;98417.75;4453557;32;20129;-81
2022/09/23 10:24:05;;;;;;;4.53;1.40;;;;;;;22.08;30.37;98414.56;4453321;32;20092;-81
2022/09/23 10:26:49;;;;;;;2.90;1.30;;;;;;;21.58;31.00;98411.66;4454042;32;20149;-81
2022/09/23 10:29:23;;;;;;;4.43;1.60;;;;;;;20.66;31.91;98414.72;4453913;32;20118;-80
2022/09/23 10:32:15;;;;;;;3.67;1.50;;;;;;;22.08;29.90;98411.94;4454251;32;20101;-81
2022/09/23 10:34:47;;;;;;;3.08;1.50;;;;;;;20.94;32.29;98414.19;4462767;32;20065;-78
2022/09/23 10:37:17;;;;;;;3.70;1.60;;;;;;;21.46;30.50;98410.03;4458197;32;20106;-79
2022/09/23 10:48:52;;;;;;;3.10;1.52;;;;;;;22.87;29.16;98403.50;4465738;32;20119;-77
2022/09/23 10:51:22;;;;;;;2.87;1.40;;;;;;;23.77;28.20;98405.97;4455333;32;20109;-77
2022/09/23 10:53:58;;;;;;;3.00;1.40;;;;;;;24.60;27.23;98409.69;4457494;32;20565;-77
2022/09/23 10:56:34;;;;;;;2.83;1.55;;;;;;;23.71;28.48;98402.06;4462738;32;20100;-77
2022/09/23 10:59:15;;;;;;;2.47;1.40;;;;;;;25.09;26.68;98406.69;4459344;32;20428;-77
2022/09/23 11:02:03;;;;;;;1.67;1.10;;;;;;;24.47;26.17;98397.66;4453724;32;20162;-78
2022/09/23 11:04:54;;;;;;;3.45;1.70;;;;;;;22.02;29.75;98398.47;4456746;32;20264;-77
2022/09/23 11:07:28;;;;;;;3.22;1.62;;;;;;;23.07;29.07;98394.66;4457161;32;20089;-77
2022/09/23 11:10:28;;;;;;;2.15;1.40;;;;;;;23.92;27.36;98394.00;4457046;32;20684;-77
2022/09/23 11:13:30;;;;;;;3.08;1.45;;;;;;;23.72;29.48;98392.37;4457648;32;20081;-77
2022/09/23 11:16:04;;;;;;;3.58;1.40;;;;;;;22.94;29.41;98389.62;4459337;32;20456;-77
2022/09/23 11:19:10;;;;;;;2.20;1.40;;;;;;;23.12;28.72;98389.00;4462359;32;20085;-78
2022/09/23 11:22:00;;;;;;;2.55;1.60;;;;;;;22.14;29.34;98386.94;4460226;32;20085;-78
2022/09/23 11:24:36;;;;;;;4.82;1.70;;;;;;;22.76;28.57;98386.81;4459389;32;20101;-78
2022/09/23 11:27:52;;;;;;;2.65;1.37;;;;;;;23.09;28.22;98385.66;4460343;32;20118;-78
2022/09/23 11:30:20;;;;;;;3.00;1.50;;;;;;;22.53;29.24;98385.31;4448363;32;20082;-78
2022/09/23 11:32:56;;;;;;;3.17;1.50;;;;;;;22.82;28.72;98377.53;4458082;32;20157;-78
2022/09/23 11:35:33;;;;;;;3.47;1.40;;;;;;;22.03;29.87;98384.34;4462308;32;20085;-78
2022/09/23 11:38:11;;;;;;;;;;;;;;;22.14;29.74;98368.56;4461590;32;20167;-77
2022/09/23 11:40:39;;;;;;;2.53;1.52;;;;;;;24.42;26.44;98370.03;4462931;32;19983;-78
2022/09/23 11:43:20;;;;;;;3.33;1.52;;;;;;;23.72;27.16;98373.94;4457524;32;20089;-79
2022/09/23 11:46:09;;;;;;;3.03;1.40;;;;;;;24.42;27.50;98370.87;4459629;32;20108;-79
2022/09/23 11:48:41;;;;;;;2.25;1.30;;;;;;;25.46;25.62;98365.28;4462634;32;20100;-79
2022/09/23 11:51:18;;;;;;;3.20;1.60;;;;;;;23.14;28.92;98361.56;4457906;32;20089;-79
2022/09/23 11:53:48;;;;;;;2.10;1.27;;;;;;;23.08;29.39;98357.69;4457456;32;20085;-80
2022/09/23 11:56:27;;;;;;;3.78;1.50;;;;;;;23.72;27.76;98361.59;4456776;32;20162;-79
2022/09/23 11:59:17;;;;;;;2.47;1.40;;;;;;;24.43;26.49;98364.63;4456264;32;20137;-82
2022/09/23 12:02:29;;;;;;;5.60;1.67;;;;;;;24.80;26.24;98351.41;4454982;32;20113;-80
2022/09/23 12:05:08;;;;;;;3.70;1.80;;;;;;;24.05;27.96;98352.38;4455263;32;20107;-81
2022/09/23 12:07:52;;;;;;;3.85;1.60;;;;;;;23.32;27.77;98349.38;4455175;32;20444;-80
2022/09/23 12:10:21;;;;;;;2.78;1.50;;;;;;;23.57;29.58;98347.16;4456884;32;20104;-82
2022/09/23 12:13:04;;;;;;;3.37;1.52;;;;;;;24.09;28.18;98351.12;4454473;32;20101;-82
2022/09/23 12:15:47;;;;;;;5.00;1.85;;;;;;;24.84;26.87;98345.81;4442678;32;20389;-82